createdAt,value
2019-03-19T00:00:13.991Z,71.70
2019-03-19T00:02:42.321Z,72.00
2019-03-19T00:05:10.746Z,72.00
2019-03-19T00:07:38.985Z,72.10
2019-03-19T00:10:08.964Z,71.60
2019-03-19T00:12:37.226Z,71.60
2019-03-19T00:15:07.926Z,71.60
2019-03-19T00:17:36.187Z,71.70
2019-03-19T00:20:12.715Z,72.80
2019-03-19T00:22:40.997Z,72.20
2019-03-19T00:25:09.279Z,72.20
2019-03-19T00:27:37.512Z,72.30
2019-03-19T00:30:16.781Z,72.60
2019-03-19T00:32:45.053Z,72.70
2019-03-19T00:35:13.354Z,72.50
2019-03-19T00:37:41.669Z,72.60
2019-03-19T00:40:12.174Z,72.60
2019-03-19T00:42:40.412Z,72.90
2019-03-19T00:45:13.383Z,73.00
2019-03-19T00:47:41.621Z,73.00
2019-03-19T00:50:11.983Z,73.00
2019-03-19T00:52:40.217Z,73.30
2019-03-19T00:55:08.463Z,73.20
2019-03-19T00:57:36.791Z,73.10
2019-03-19T01:00:08.327Z,73.00
2019-03-19T01:02:36.623Z,72.90
2019-03-19T01:05:05.836Z,72.90
2019-03-19T01:07:34.101Z,72.70
2019-03-19T01:10:02.439Z,72.90
2019-03-19T01:12:30.735Z,73.00
2019-03-19T01:14:58.983Z,73.00
2019-03-19T01:17:27.350Z,72.90
2019-03-19T01:19:55.580Z,73.00
2019-03-19T01:22:23.846Z,72.80
2019-03-19T01:24:52.111Z,72.90
2019-03-19T01:27:20.410Z,72.80
2019-03-19T01:29:48.742Z,72.80
2019-03-19T01:32:17.000Z,72.80
2019-03-19T01:34:45.244Z,72.70
2019-03-19T01:37:13.493Z,72.50
2019-03-19T01:39:41.887Z,72.60
2019-03-19T01:42:10.224Z,72.50
2019-03-19T01:44:38.512Z,72.80
2019-03-19T01:47:06.834Z,72.80
2019-03-19T01:49:36.917Z,72.90
2019-03-19T01:52:05.192Z,73.20
2019-03-19T01:54:33.484Z,73.40
2019-03-19T01:57:01.725Z,73.30
2019-03-19T01:59:29.962Z,73.20
2019-03-19T02:01:58.224Z,73.30
2019-03-19T02:04:26.492Z,73.40
2019-03-19T02:06:54.762Z,73.40
2019-03-19T02:09:23.009Z,73.40
2019-03-19T02:11:51.392Z,73.50
2019-03-19T02:14:19.625Z,73.60
2019-03-19T02:16:47.885Z,73.40
2019-03-19T02:19:16.170Z,73.40
2019-03-19T02:21:47.320Z,73.30
2019-03-19T02:24:15.655Z,73.10
2019-03-19T02:26:43.994Z,72.70
2019-03-19T02:29:12.364Z,72.90
2019-03-19T02:31:40.649Z,72.70
2019-03-19T02:34:08.905Z,73.00
2019-03-19T02:36:37.293Z,73.00
2019-03-19T02:39:06.588Z,73.20
2019-03-19T02:41:34.877Z,73.30
2019-03-19T02:44:03.116Z,73.30
2019-03-19T02:46:31.400Z,73.40
2019-03-19T02:48:59.744Z,73.50
2019-03-19T02:51:27.971Z,74.00
2019-03-19T02:53:56.354Z,73.80
2019-03-19T02:56:32.355Z,74.00
2019-03-19T02:58:54.598Z,73.90
2019-03-19T03:01:22.854Z,73.80
2019-03-19T03:03:51.150Z,74.20
2019-03-19T03:06:19.421Z,74.40
2019-03-19T03:08:47.678Z,74.70
2019-03-19T03:11:15.912Z,74.80
2019-03-19T03:13:44.174Z,74.70
2019-03-19T03:16:12.444Z,74.60
2019-03-19T03:18:40.743Z,74.60
2019-03-19T03:21:08.971Z,74.20
2019-03-19T03:23:37.333Z,73.80
2019-03-19T03:26:05.571Z,73.70
2019-03-19T03:28:33.839Z,73.70
2019-03-19T03:31:02.076Z,74.10
2019-03-19T03:33:30.419Z,74.20
2019-03-19T03:35:58.649Z,74.30
2019-03-19T03:38:26.909Z,74.10
2019-03-19T03:40:55.182Z,74.30
2019-03-19T03:43:23.432Z,74.50
2019-03-19T03:45:51.718Z,74.40
2019-03-19T03:48:19.957Z,74.10
2019-03-19T03:50:48.213Z,73.90
2019-03-19T03:53:16.480Z,74.00
2019-03-19T03:55:44.746Z,74.10
2019-03-19T03:58:13.046Z,74.00
2019-03-19T04:00:41.309Z,74.00
2019-03-19T04:03:09.556Z,73.90
2019-03-19T04:05:37.815Z,73.90
2019-03-19T04:08:06.073Z,73.60
2019-03-19T04:10:34.326Z,73.70
2019-03-19T04:13:02.606Z,73.60
2019-03-19T04:15:31.096Z,74.00
2019-03-19T04:17:59.599Z,73.80
2019-03-19T04:20:27.890Z,73.90
2019-03-19T04:22:56.145Z,74.00
2019-03-19T04:25:24.399Z,74.00
2019-03-19T04:27:52.656Z,74.20
2019-03-19T04:30:21.185Z,74.20
2019-03-19T04:32:49.473Z,74.40
2019-03-19T04:35:17.870Z,74.60
2019-03-19T04:37:46.105Z,74.60
2019-03-19T04:40:15.078Z,74.50
2019-03-19T04:42:43.766Z,74.20
2019-03-19T04:45:14.126Z,74.40
2019-03-19T04:47:42.361Z,74.40
2019-03-19T04:50:14.704Z,74.20
2019-03-19T04:52:42.944Z,74.10
2019-03-19T04:55:12.433Z,74.20
2019-03-19T04:57:40.701Z,74.00
2019-03-19T05:00:17.816Z,74.00
2019-03-19T05:02:46.061Z,73.90
2019-03-19T05:05:14.302Z,73.80
2019-03-19T05:07:42.560Z,74.00
2019-03-19T05:10:12.551Z,73.90
2019-03-19T05:12:41.092Z,73.90
2019-03-19T05:15:09.768Z,73.70
2019-03-19T05:17:38.014Z,73.60
2019-03-19T05:20:09.246Z,73.50
2019-03-19T05:22:37.520Z,73.70
2019-03-19T05:25:06.648Z,73.70
2019-03-19T05:27:37.555Z,73.60
2019-03-19T05:30:12.456Z,73.50
2019-03-19T05:32:40.727Z,73.50
2019-03-19T05:35:09.748Z,73.50
2019-03-19T05:37:38.020Z,73.50
2019-03-19T05:40:09.261Z,73.50
2019-03-19T05:42:37.500Z,73.50
2019-03-19T05:45:08.609Z,73.40
2019-03-19T05:47:40.080Z,73.50
2019-03-19T05:50:09.928Z,73.40
2019-03-19T05:52:38.182Z,73.60
2019-03-19T05:55:08.066Z,73.60
2019-03-19T05:57:36.302Z,73.70
2019-03-19T06:00:16.023Z,73.60
2019-03-19T06:02:44.455Z,73.70
2019-03-19T06:05:12.991Z,73.90
2019-03-19T06:07:41.380Z,73.80
2019-03-19T06:10:14.158Z,74.00
2019-03-19T06:12:42.701Z,74.20
2019-03-19T06:15:14.795Z,73.90
2019-03-19T06:17:43.068Z,73.80
2019-03-19T06:20:18.621Z,73.80
2019-03-19T06:22:46.887Z,74.00
2019-03-19T06:25:15.133Z,73.70
2019-03-19T06:27:43.427Z,73.70
2019-03-19T06:30:17.733Z,73.90
2019-03-19T06:32:45.988Z,74.00
2019-03-19T06:35:15.059Z,73.90
2019-03-19T06:37:43.337Z,73.80
2019-03-19T06:40:14.464Z,73.70
2019-03-19T06:42:42.711Z,73.60
2019-03-19T06:45:18.283Z,73.80
2019-03-19T06:47:46.846Z,73.90
2019-03-19T06:50:18.925Z,73.60
2019-03-19T06:52:47.155Z,73.90
2019-03-19T06:55:20.027Z,73.80
2019-03-19T06:57:48.284Z,73.60
2019-03-19T07:00:17.790Z,73.60
2019-03-19T07:02:46.028Z,73.70
2019-03-19T07:05:15.281Z,73.40
2019-03-19T07:07:43.572Z,74.50
2019-03-19T07:10:13.467Z,74.50
2019-03-19T07:12:41.733Z,73.90
2019-03-19T07:15:15.545Z,73.20
2019-03-19T07:17:43.808Z,72.60
2019-03-19T07:20:20.264Z,72.50
2019-03-19T07:22:48.509Z,71.80
2019-03-19T07:25:16.779Z,71.70
2019-03-19T07:27:45.016Z,71.80
2019-03-19T07:30:20.408Z,71.30
2019-03-19T07:32:48.659Z,71.60
2019-03-19T07:35:16.930Z,72.10
2019-03-19T07:37:45.279Z,72.00
2019-03-19T07:40:14.719Z,71.20
2019-03-19T07:42:42.964Z,70.50
2019-03-19T07:45:16.022Z,70.70
2019-03-19T07:47:44.277Z,70.80
2019-03-19T07:50:14.557Z,70.90
2019-03-19T07:52:42.850Z,70.80
2019-03-19T07:55:11.092Z,70.30
2019-03-19T07:57:39.416Z,69.50
2019-03-19T08:00:17.810Z,68.50
2019-03-19T08:02:46.070Z,67.80
2019-03-19T08:05:14.324Z,67.00
2019-03-19T08:07:42.584Z,66.70
2019-03-19T08:10:12.458Z,66.40
2019-03-19T08:12:40.713Z,66.50
2019-03-19T08:15:16.064Z,66.80
2019-03-19T08:17:44.294Z,67.00
2019-03-19T08:20:16.043Z,67.20
2019-03-19T08:22:44.305Z,67.80
2019-03-19T08:25:16.210Z,66.80
2019-03-19T08:27:44.451Z,65.50
2019-03-19T08:30:24.541Z,65.90
2019-03-19T08:32:53.380Z,64.80
2019-03-19T08:35:21.629Z,64.20
2019-03-19T08:37:49.883Z,62.80
2019-03-19T08:40:18.776Z,62.70
2019-03-19T08:42:47.038Z,63.60
2019-03-19T08:45:20.579Z,63.20
2019-03-19T08:47:48.929Z,63.60
2019-03-19T08:50:20.424Z,64.10
2019-03-19T08:52:49.116Z,64.10
2019-03-19T08:55:17.855Z,62.30
2019-03-19T08:57:47.872Z,61.60
2019-03-19T09:00:23.546Z,62.10
2019-03-19T09:02:51.892Z,60.40
2019-03-19T09:05:20.210Z,60.20
2019-03-19T09:07:48.456Z,60.60
2019-03-19T09:10:19.062Z,61.50
2019-03-19T09:12:48.656Z,60.70
2019-03-19T09:15:25.074Z,60.60
2019-03-19T09:17:53.306Z,61.10
2019-03-19T09:20:21.616Z,61.00
2019-03-19T09:22:49.860Z,60.50
2019-03-19T09:25:20.145Z,60.10
2019-03-19T09:27:49.759Z,59.80
2019-03-19T09:30:20.178Z,60.00
2019-03-19T09:32:48.519Z,59.50
2019-03-19T09:35:16.808Z,59.70
2019-03-19T09:37:57.297Z,59.90
2019-03-19T09:40:20.019Z,60.10
2019-03-19T09:42:47.583Z,60.10
2019-03-19T09:45:19.265Z,60.40
2019-03-19T09:47:49.163Z,60.60
2019-03-19T09:50:18.843Z,60.60
2019-03-19T09:52:48.789Z,60.60
2019-03-19T09:55:17.152Z,60.30
2019-03-19T09:57:45.402Z,58.70
2019-03-19T10:00:20.472Z,59.10
2019-03-19T10:02:48.721Z,59.30
2019-03-19T10:05:16.974Z,58.40
2019-03-19T10:07:47.359Z,58.20
2019-03-19T10:10:18.895Z,57.10
2019-03-19T10:12:47.131Z,57.40
2019-03-19T10:15:15.397Z,57.60
2019-03-19T10:17:51.782Z,57.50
2019-03-19T10:20:57.436Z,57.30
2019-03-19T10:22:56.868Z,57.40
2019-03-19T10:25:25.122Z,57.30
2019-03-19T10:27:53.376Z,57.60
2019-03-19T10:30:26.709Z,57.40
2019-03-19T10:32:54.947Z,56.70
2019-03-19T10:35:26.130Z,55.70
2019-03-19T10:37:54.387Z,55.60
2019-03-19T10:40:22.763Z,56.10
2019-03-19T10:42:51.026Z,56.20
2019-03-19T10:45:23.563Z,55.80
2019-03-19T10:47:51.840Z,56.50
2019-03-19T10:50:22.104Z,56.30
2019-03-19T10:52:50.386Z,56.30
2019-03-19T10:55:18.732Z,55.80
2019-03-19T10:57:48.692Z,56.60
2019-03-19T11:00:18.495Z,57.20
2019-03-19T11:02:46.741Z,57.60
2019-03-19T11:05:15.078Z,56.30
2019-03-19T11:07:46.469Z,55.90
2019-03-19T11:10:15.673Z,55.10
2019-03-19T11:12:43.988Z,54.70
2019-03-19T11:15:31.699Z,53.80
2019-03-19T11:18:00.290Z,53.00
2019-03-19T11:20:28.576Z,54.30
2019-03-19T11:22:56.801Z,54.80
2019-03-19T11:25:26.525Z,53.00
2019-03-19T11:27:54.833Z,52.20
2019-03-19T11:30:29.203Z,51.50
2019-03-19T11:33:00.230Z,51.70
2019-03-19T11:35:28.491Z,48.80
2019-03-19T11:37:56.735Z,48.50
2019-03-19T11:40:26.005Z,45.70
2019-03-19T11:42:56.004Z,44.20
2019-03-19T11:45:24.529Z,42.30
2019-03-19T11:47:52.812Z,42.60
2019-03-19T11:50:26.980Z,41.40
2019-03-19T11:52:58.348Z,42.40
2019-03-19T11:55:26.634Z,44.30
2019-03-19T11:57:57.862Z,45.10
2019-03-19T12:00:37.981Z,45.10
2019-03-19T12:03:14.995Z,46.00
2019-03-19T12:05:36.604Z,45.80
2019-03-19T12:08:05.194Z,45.00
2019-03-19T12:10:33.448Z,45.10
2019-03-19T12:13:01.674Z,45.00
2019-03-19T12:15:29.943Z,44.50
2019-03-19T12:17:58.224Z,44.80
2019-03-19T12:20:26.468Z,43.70
2019-03-19T12:22:54.728Z,44.00
2019-03-19T12:25:25.804Z,44.30
2019-03-19T12:27:54.116Z,44.40
2019-03-19T12:30:26.132Z,44.10
2019-03-19T12:32:53.397Z,45.00
2019-03-19T12:35:21.723Z,43.40
2019-03-19T12:37:49.973Z,42.20
2019-03-19T12:40:23.054Z,42.00
2019-03-19T12:42:50.678Z,42.20
2019-03-19T12:45:22.711Z,41.90
2019-03-19T12:47:51.033Z,42.20
2019-03-19T12:50:26.099Z,42.80
2019-03-19T12:52:54.362Z,43.00
2019-03-19T12:55:22.644Z,43.50
2019-03-19T12:57:50.933Z,43.60
2019-03-19T13:00:33.455Z,42.70
2019-03-19T13:02:55.044Z,42.40
2019-03-19T13:05:23.286Z,42.10
2019-03-19T13:07:51.560Z,42.00
2019-03-19T13:10:23.121Z,42.00
2019-03-19T13:12:51.429Z,42.10
2019-03-19T13:15:20.152Z,41.20
2019-03-19T13:17:49.747Z,41.40
2019-03-19T13:20:22.395Z,40.90
2019-03-19T13:22:50.708Z,40.20
2019-03-19T13:25:29.436Z,39.90
2019-03-19T13:27:57.422Z,39.40
2019-03-19T13:30:29.971Z,39.40
2019-03-19T13:32:58.291Z,37.50
2019-03-19T13:35:26.534Z,36.10
2019-03-19T13:38:00.852Z,37.00
2019-03-19T13:40:26.419Z,36.90
2019-03-19T13:42:54.651Z,36.70
2019-03-19T13:45:23.748Z,36.90
2019-03-19T13:47:51.987Z,35.70
2019-03-19T13:50:21.077Z,34.70
2019-03-19T13:55:52.236Z,31.70
2019-03-19T13:58:35.456Z,31.40
2019-03-19T14:01:20.102Z,29.90
2019-03-19T14:06:35.810Z,30.30
2019-03-19T14:09:12.304Z,29.80
2019-03-19T14:11:40.498Z,29.20
2019-03-19T14:14:08.750Z,29.90
2019-03-19T14:16:37.001Z,29.60
2019-03-19T14:19:05.272Z,30.50
2019-03-19T14:21:33.499Z,31.60
2019-03-19T14:24:01.777Z,32.50
2019-03-19T14:26:30.042Z,31.90
2019-03-19T14:28:58.303Z,32.10
2019-03-19T14:31:26.557Z,33.20
2019-03-19T14:33:54.820Z,35.90
2019-03-19T14:36:23.079Z,47.10
2019-03-19T14:38:51.376Z,45.00
2019-03-19T14:41:19.655Z,45.20
2019-03-19T14:43:47.891Z,48.20
2019-03-19T14:46:16.163Z,38.10
2019-03-19T14:48:44.404Z,40.70
2019-03-19T14:51:12.650Z,38.00
2019-03-19T14:53:40.902Z,38.90
2019-03-19T14:56:09.168Z,38.80
2019-03-19T14:58:37.563Z,40.70
2019-03-19T15:01:05.873Z,40.50
2019-03-19T15:06:03.767Z,31.90
2019-03-19T15:08:31.998Z,32.20
2019-03-19T15:11:00.272Z,30.50
2019-03-19T15:13:28.513Z,30.50
2019-03-19T15:15:56.851Z,30.50
2019-03-19T15:18:25.126Z,30.00
2019-03-19T15:20:53.496Z,30.50
2019-03-19T15:23:21.839Z,30.50
2019-03-19T15:25:50.089Z,31.00
2019-03-19T15:28:18.329Z,31.10
2019-03-19T15:30:46.602Z,31.70
2019-03-19T15:33:14.830Z,31.20
2019-03-19T15:35:43.093Z,31.70
2019-03-19T15:38:11.365Z,32.50
2019-03-19T15:40:39.613Z,32.00
2019-03-19T15:43:07.872Z,32.10
2019-03-19T15:45:36.111Z,31.70
2019-03-19T15:48:04.619Z,31.50
2019-03-19T15:50:32.963Z,31.80
2019-03-19T15:53:01.203Z,32.70
2019-03-19T15:55:29.449Z,31.80
2019-03-19T15:58:01.457Z,31.50
2019-03-19T16:00:29.735Z,31.70
2019-03-19T16:02:57.975Z,31.90
2019-03-19T16:05:26.274Z,33.00
2019-03-19T16:07:54.539Z,32.70
2019-03-19T16:10:22.773Z,33.40
2019-03-19T16:12:51.053Z,33.80
2019-03-19T16:15:21.108Z,34.40
2019-03-19T16:17:49.435Z,34.50
2019-03-19T16:20:19.626Z,34.80
2019-03-19T16:22:47.945Z,34.60
2019-03-19T16:25:16.188Z,34.90
2019-03-19T16:27:44.700Z,35.20
2019-03-19T16:30:16.204Z,35.00
2019-03-19T16:32:44.453Z,34.40
2019-03-19T16:35:12.893Z,34.60
2019-03-19T16:37:41.130Z,34.80
2019-03-19T16:40:12.656Z,35.40
2019-03-19T16:42:40.911Z,35.50
2019-03-19T16:45:10.627Z,35.90
2019-03-19T16:47:38.901Z,35.50
2019-03-19T16:50:10.430Z,36.00
2019-03-19T16:52:38.679Z,36.30
2019-03-19T16:55:09.475Z,36.40
2019-03-19T16:57:37.730Z,36.30
2019-03-19T17:00:09.218Z,36.60
2019-03-19T17:02:37.470Z,36.50
2019-03-19T17:05:07.955Z,36.50
2019-03-19T17:07:36.242Z,36.80
2019-03-19T17:10:10.355Z,36.40
2019-03-19T17:12:38.599Z,36.70
2019-03-19T17:15:09.786Z,37.60
2019-03-19T17:17:38.021Z,37.10
2019-03-19T17:20:09.288Z,37.30
2019-03-19T17:22:37.524Z,37.50
2019-03-19T17:25:12.019Z,38.00
2019-03-19T17:27:40.287Z,38.00
2019-03-19T17:30:17.099Z,38.30
2019-03-19T17:32:44.660Z,38.50
2019-03-19T17:35:12.919Z,38.70
2019-03-19T17:37:41.150Z,39.00
2019-03-19T17:40:12.117Z,39.30
2019-03-19T17:42:40.436Z,39.50
2019-03-19T17:45:10.507Z,39.90
2019-03-19T17:47:38.768Z,40.60
2019-03-19T17:50:12.859Z,40.50
2019-03-19T17:52:41.180Z,40.60
2019-03-19T17:55:11.658Z,40.60
2019-03-19T17:57:40.023Z,40.80
2019-03-19T18:00:13.909Z,41.00
2019-03-19T18:02:42.224Z,41.10
2019-03-19T18:05:10.545Z,41.40
2019-03-19T18:07:38.800Z,41.60
2019-03-19T18:10:13.931Z,42.00
2019-03-19T18:12:42.160Z,42.20
2019-03-19T18:15:15.094Z,42.40
2019-03-19T18:17:43.581Z,42.70
2019-03-19T18:20:13.940Z,43.00
2019-03-19T18:22:42.163Z,43.10
2019-03-19T18:25:15.003Z,43.30
2019-03-19T18:27:43.227Z,43.70
2019-03-19T18:30:14.137Z,44.00
2019-03-19T18:32:42.391Z,43.90
2019-03-19T18:35:10.646Z,44.20
2019-03-19T18:37:38.894Z,45.10
2019-03-19T18:40:19.854Z,44.60
2019-03-19T18:42:48.200Z,44.70
2019-03-19T18:45:17.267Z,44.80
2019-03-19T18:47:45.582Z,45.10
2019-03-19T18:50:20.580Z,45.10
2019-03-19T18:52:48.855Z,45.30
2019-03-19T18:55:17.165Z,45.30
2019-03-19T18:57:45.517Z,45.60
2019-03-19T19:00:20.051Z,45.90
2019-03-19T19:02:50.821Z,45.80
2019-03-19T19:05:19.545Z,46.10
2019-03-19T19:07:47.805Z,46.30
2019-03-19T19:10:21.053Z,46.20
2019-03-19T19:12:48.617Z,46.40
2019-03-19T19:15:20.217Z,46.50
2019-03-19T19:17:48.483Z,46.00
2019-03-19T19:20:17.446Z,46.60
2019-03-19T19:22:45.688Z,46.70
2019-03-19T19:25:19.342Z,46.70
2019-03-19T19:27:47.585Z,47.00
2019-03-19T19:30:21.087Z,47.10
2019-03-19T19:33:00.457Z,46.80
2019-03-19T19:35:19.312Z,47.10
2019-03-19T19:37:47.578Z,60.40
2019-03-19T19:40:17.618Z,55.30
2019-03-19T19:42:45.883Z,53.90
2019-03-19T19:45:15.009Z,57.40
2019-03-19T19:47:43.268Z,56.00
2019-03-19T19:50:16.737Z,55.40
2019-03-19T19:52:45.010Z,52.70
2019-03-19T19:55:14.084Z,53.70
2019-03-19T19:57:42.329Z,50.90
2019-03-19T20:00:18.898Z,52.20
2019-03-19T20:02:47.160Z,52.70
2019-03-19T20:05:15.445Z,49.50
2019-03-19T20:07:43.700Z,50.10
2019-03-19T20:10:27.312Z,49.60
2019-03-19T20:12:55.593Z,50.10
2019-03-19T20:15:23.853Z,52.00
2019-03-19T20:17:52.122Z,51.10
2019-03-19T20:20:26.673Z,50.40
2019-03-19T20:22:54.934Z,50.50
2019-03-19T20:25:23.191Z,53.50
2019-03-19T20:27:51.515Z,55.00
2019-03-19T20:30:26.735Z,56.90
2019-03-19T20:32:55.007Z,54.70
2019-03-19T20:35:23.253Z,57.10
2019-03-19T20:37:51.587Z,57.40
2019-03-19T20:40:19.852Z,56.60
2019-03-19T20:42:48.176Z,56.60
2019-03-19T20:45:25.813Z,56.40
2019-03-19T20:47:54.050Z,57.40
2019-03-19T20:50:28.052Z,57.70
2019-03-19T20:52:56.333Z,55.70
2019-03-19T20:55:24.647Z,57.10
2019-03-19T20:57:52.884Z,57.00
2019-03-19T21:00:21.226Z,53.70
2019-03-19T21:02:49.494Z,57.30
2019-03-19T21:05:17.752Z,57.00
2019-03-19T21:07:46.034Z,57.50
2019-03-19T21:10:19.082Z,57.00
2019-03-19T21:12:47.411Z,57.10
2019-03-19T21:15:18.188Z,56.50
2019-03-19T21:17:47.473Z,56.90
2019-03-19T21:20:15.701Z,57.10
2019-03-19T21:22:43.962Z,57.50
2019-03-19T21:25:12.204Z,57.60
2019-03-19T21:27:40.495Z,58.00
2019-03-19T21:30:16.760Z,57.60
2019-03-19T21:32:45.090Z,56.60
2019-03-19T21:35:13.368Z,57.80
2019-03-19T21:37:41.607Z,57.70
2019-03-19T21:40:14.677Z,57.20
2019-03-19T21:42:42.927Z,57.00
2019-03-19T21:45:16.353Z,57.40
2019-03-19T21:47:44.653Z,58.40
2019-03-19T21:50:17.004Z,61.60
2019-03-19T21:52:45.252Z,63.80
2019-03-19T21:55:14.348Z,67.20
2019-03-19T21:57:42.880Z,76.80
2019-03-19T22:00:14.354Z,78.20
2019-03-19T22:02:42.662Z,77.90
2019-03-19T22:05:10.914Z,77.90
2019-03-19T22:07:39.934Z,76.80
2019-03-19T22:10:13.822Z,76.10
2019-03-19T22:12:42.098Z,75.40
2019-03-19T22:15:13.456Z,76.30
2019-03-19T22:17:41.782Z,76.00
2019-03-19T22:20:10.158Z,75.80
2019-03-19T22:22:38.399Z,76.00
2019-03-19T22:25:09.294Z,75.40
2019-03-19T22:27:37.560Z,75.30
2019-03-19T22:30:17.125Z,76.00
2019-03-19T22:32:45.667Z,74.80
2019-03-19T22:38:01.926Z,73.90
2019-03-19T22:40:30.197Z,72.90
2019-03-19T22:42:58.435Z,72.20
2019-03-19T22:45:26.683Z,71.90
2019-03-19T22:47:54.991Z,71.30
2019-03-19T22:50:23.233Z,71.30
2019-03-19T22:52:51.598Z,71.50
2019-03-19T22:55:28.434Z,71.40
2019-03-19T22:57:49.907Z,71.70
2019-03-19T23:00:37.244Z,71.80
2019-03-19T23:03:06.615Z,70.50
2019-03-19T23:05:34.916Z,71.30
2019-03-19T23:08:03.170Z,71.40
2019-03-19T23:10:31.427Z,70.70
2019-03-19T23:12:59.714Z,71.50
2019-03-19T23:15:27.956Z,71.30
2019-03-19T23:17:56.217Z,70.40
2019-03-19T23:20:24.461Z,71.00
2019-03-19T23:22:52.708Z,71.30
2019-03-19T23:25:21.331Z,70.30
2019-03-19T23:27:49.583Z,70.70
2019-03-19T23:30:19.267Z,71.10
2019-03-19T23:32:47.529Z,71.10
2019-03-19T23:35:15.787Z,71.30
2019-03-19T23:37:44.039Z,71.50
2019-03-19T23:40:16.726Z,71.50
2019-03-19T23:42:44.979Z,70.60
2019-03-19T23:45:13.512Z,71.90
2019-03-19T23:47:41.896Z,72.20
2019-03-19T23:50:11.831Z,72.00
2019-03-19T23:52:40.075Z,71.40
2019-03-19T23:55:09.064Z,71.30
2019-03-19T23:57:37.326Z,71.00
